createdAt,value
2022-11-26T00:01:00.764Z,11.83
2022-11-26T00:03:29.213Z,12.10
2022-11-26T00:05:59.380Z,11.57
2022-11-26T00:08:34.287Z,11.23
2022-11-26T00:11:04.155Z,11.37
2022-11-26T00:13:33.192Z,11.77
2022-11-26T00:16:01.544Z,11.07
2022-11-26T00:18:29.901Z,12.07
2022-11-26T00:21:01.957Z,11.03
2022-11-26T00:23:30.842Z,11.10
2022-11-26T00:26:02.823Z,11.53
2022-11-26T00:28:35.302Z,11.90
2022-11-26T00:31:07.902Z,9.70
2022-11-26T00:33:36.255Z,10.63
2022-11-26T00:36:16.601Z,10.70
2022-11-26T00:38:45.639Z,11.00
2022-11-26T00:41:19.339Z,10.67
2022-11-26T00:43:49.516Z,11.10
2022-11-26T00:46:20.647Z,10.67
2022-11-26T00:48:49.574Z,10.43
2022-11-26T00:51:24.141Z,10.33
2022-11-26T00:53:57.476Z,11.20
2022-11-26T00:56:26.058Z,10.67
2022-11-26T00:58:55.872Z,10.07
2022-11-26T01:01:28.711Z,10.50
2022-11-26T01:03:59.466Z,9.60
2022-11-26T01:06:32.935Z,9.80
2022-11-26T01:09:02.066Z,10.43
2022-11-26T01:11:31.939Z,10.13
2022-11-26T01:14:02.028Z,9.80
2022-11-26T01:16:32.907Z,9.27
2022-11-26T01:19:03.037Z,10.23
2022-11-26T01:21:33.377Z,9.90
2022-11-26T01:24:01.880Z,9.20
2022-11-26T01:26:36.144Z,10.13
2022-11-26T01:29:06.015Z,10.20
2022-11-26T01:31:35.150Z,11.13
2022-11-26T01:34:03.630Z,11.03
2022-11-26T01:36:36.063Z,10.63
2022-11-26T01:39:08.541Z,11.00
2022-11-26T01:41:46.844Z,11.20
2022-11-26T01:44:22.677Z,11.47
2022-11-26T01:46:52.932Z,10.57
2022-11-26T01:49:24.688Z,10.40
2022-11-26T01:52:04.552Z,9.93
2022-11-26T01:54:37.911Z,9.60
2022-11-26T01:57:14.670Z,9.13
2022-11-26T01:59:50.938Z,10.33
2022-11-26T02:02:20.843Z,10.20
2022-11-26T02:05:08.726Z,10.23
2022-11-26T02:07:37.693Z,9.90
2022-11-26T02:10:07.738Z,10.83
2022-11-26T02:12:36.919Z,13.00
2022-11-26T02:15:08.547Z,12.87
2022-11-26T02:17:42.769Z,14.33
2022-11-26T02:20:46.430Z,14.43
2022-11-26T02:23:49.955Z,13.77
2022-11-26T02:27:01.477Z,14.00
2022-11-26T02:30:03.373Z,13.43
2022-11-26T02:32:44.022Z,13.77
2022-11-26T02:35:23.694Z,13.63
2022-11-26T02:37:57.715Z,13.23
2022-11-26T02:40:28.106Z,13.93
2022-11-26T02:42:56.928Z,13.37
2022-11-26T02:45:32.282Z,12.23
2022-11-26T02:48:05.945Z,12.00
2022-11-26T02:50:39.583Z,11.80
2022-11-26T02:53:10.781Z,12.17
2022-11-26T02:55:46.074Z,11.43
2022-11-26T02:58:15.672Z,11.70
2022-11-26T03:00:49.503Z,12.17
2022-11-26T03:03:26.140Z,12.63
2022-11-26T03:05:59.276Z,12.03
2022-11-26T03:08:29.875Z,11.63
2022-11-26T03:10:58.197Z,11.47
2022-11-26T03:13:26.934Z,12.60
2022-11-26T03:15:56.833Z,12.93
2022-11-26T03:18:25.520Z,11.97
2022-11-26T03:20:54.152Z,11.93
2022-11-26T03:23:23.004Z,12.53
2022-11-26T03:25:51.492Z,12.67
2022-11-26T03:28:19.854Z,13.47
2022-11-26T03:30:51.330Z,13.50
2022-11-26T03:33:21.424Z,13.80
2022-11-26T03:35:50.383Z,13.40
2022-11-26T03:38:19.135Z,15.60
2022-11-26T03:40:56.128Z,14.33
2022-11-26T03:43:24.503Z,15.73
2022-11-26T03:45:53.792Z,14.60
2022-11-26T03:48:23.513Z,16.97
2022-11-26T03:50:51.959Z,16.53
2022-11-26T03:53:20.312Z,15.93
2022-11-26T03:55:49.443Z,16.33
2022-11-26T03:58:17.946Z,16.43
2022-11-26T04:00:46.326Z,15.87
2022-11-26T04:03:15.038Z,15.83
2022-11-26T04:05:44.872Z,16.67
2022-11-26T04:08:13.651Z,15.90
2022-11-26T04:10:42.225Z,16.43
2022-11-26T04:13:10.787Z,16.53
2022-11-26T04:15:39.136Z,16.90
2022-11-26T04:18:07.808Z,17.50
2022-11-26T04:20:36.442Z,16.73
2022-11-26T04:23:06.268Z,17.07
2022-11-26T04:25:34.662Z,17.10
2022-11-26T04:28:03.109Z,16.13
2022-11-26T04:30:31.547Z,15.87
2022-11-26T04:32:59.925Z,16.33
2022-11-26T04:35:28.393Z,16.37
2022-11-26T04:37:56.768Z,15.10
2022-11-26T04:40:26.654Z,14.43
2022-11-26T04:42:55.250Z,19.23
2022-11-26T04:45:23.751Z,19.17
2022-11-26T04:47:52.250Z,15.43
2022-11-26T04:50:21.440Z,15.40
2022-11-26T04:52:50.770Z,14.30
2022-11-26T04:55:19.989Z,20.47
2022-11-26T04:57:50.828Z,15.30
2022-11-26T05:00:20.900Z,15.27
2022-11-26T05:02:49.351Z,15.23
2022-11-26T05:05:17.904Z,15.10
2022-11-26T05:07:46.502Z,15.83
2022-11-26T05:10:15.007Z,15.60
2022-11-26T05:12:43.321Z,19.13
2022-11-26T05:15:13.215Z,17.30
2022-11-26T05:17:41.598Z,16.00
2022-11-26T05:20:11.670Z,15.57
2022-11-26T05:22:39.966Z,16.47
2022-11-26T05:25:09.137Z,18.83
2022-11-26T05:27:37.576Z,17.27
2022-11-26T05:30:07.844Z,16.60
2022-11-26T05:32:37.450Z,16.83
2022-11-26T05:35:06.727Z,15.37
2022-11-26T05:37:35.073Z,16.57
2022-11-26T05:40:03.552Z,16.67
2022-11-26T05:42:31.843Z,16.07
2022-11-26T05:45:00.121Z,14.67
2022-11-26T05:47:28.506Z,15.20
2022-11-26T05:49:58.460Z,14.90
2022-11-26T05:52:27.183Z,15.87
2022-11-26T05:54:55.477Z,15.77
2022-11-26T05:57:23.805Z,16.50
2022-11-26T05:59:52.267Z,16.83
2022-11-26T06:02:20.689Z,15.13
2022-11-26T06:04:49.116Z,15.53
2022-11-26T06:07:18.890Z,16.10
2022-11-26T06:09:47.204Z,14.07
2022-11-26T06:12:15.529Z,15.73
2022-11-26T06:14:43.982Z,14.57
2022-11-26T06:17:12.328Z,16.13
2022-11-26T06:19:40.981Z,14.83
2022-11-26T06:22:09.423Z,14.70
2022-11-26T06:24:39.629Z,15.13
2022-11-26T06:27:08.403Z,14.57
2022-11-26T06:29:36.974Z,15.83
2022-11-26T06:32:05.925Z,14.43
2022-11-26T06:34:34.372Z,14.87
2022-11-26T06:37:02.706Z,14.23
2022-11-26T06:39:31.173Z,15.87
2022-11-26T06:42:00.772Z,15.13
2022-11-26T06:44:29.030Z,15.13
2022-11-26T06:46:57.278Z,16.33
2022-11-26T06:49:25.612Z,16.20
2022-11-26T06:51:54.735Z,16.10
2022-11-26T06:54:23.375Z,15.83
2022-11-26T06:56:51.640Z,15.97
2022-11-26T06:59:22.233Z,16.33
2022-11-26T07:01:50.631Z,16.57
2022-11-26T07:04:18.947Z,15.93
2022-11-26T07:06:47.470Z,15.60
2022-11-26T07:09:15.808Z,16.67
2022-11-26T07:11:44.240Z,16.73
2022-11-26T07:14:12.490Z,16.37
2022-11-26T07:16:42.133Z,17.57
2022-11-26T07:19:15.330Z,17.30
2022-11-26T07:21:43.709Z,17.73
2022-11-26T07:24:12.040Z,18.80
2022-11-26T07:26:40.309Z,18.20
2022-11-26T07:29:08.732Z,16.60
2022-11-26T07:31:37.106Z,16.80
2022-11-26T07:34:06.971Z,16.50
2022-11-26T07:36:35.407Z,17.33
2022-11-26T07:39:04.438Z,17.20
2022-11-26T07:41:32.799Z,17.40
2022-11-26T07:44:01.015Z,15.97
2022-11-26T07:46:29.449Z,18.40
2022-11-26T07:48:58.470Z,17.50
2022-11-26T07:51:30.947Z,18.00
2022-11-26T07:54:04.211Z,17.63
2022-11-26T07:56:32.727Z,19.43
2022-11-26T07:59:01.633Z,19.13
2022-11-26T08:01:32.140Z,19.13
2022-11-26T08:04:01.779Z,19.47
2022-11-26T08:06:31.689Z,19.03
2022-11-26T08:09:02.206Z,20.33
2022-11-26T08:11:33.286Z,19.67
2022-11-26T08:14:03.761Z,19.47
2022-11-26T08:16:32.778Z,19.27
2022-11-26T08:19:04.785Z,18.67
2022-11-26T08:21:35.523Z,18.73
2022-11-26T08:24:04.902Z,17.50
2022-11-26T08:26:38.438Z,18.80
2022-11-26T08:29:11.160Z,18.33
2022-11-26T08:31:45.125Z,17.67
2022-11-26T08:34:16.242Z,19.50
2022-11-26T08:36:47.270Z,19.53
2022-11-26T08:39:17.217Z,18.63
2022-11-26T08:41:51.644Z,18.43
2022-11-26T08:44:21.038Z,21.27
2022-11-26T08:46:50.230Z,20.60
2022-11-26T08:49:18.819Z,19.83
2022-11-26T08:51:48.531Z,21.07
2022-11-26T08:54:16.849Z,20.73
2022-11-26T08:56:45.103Z,20.13
2022-11-26T08:59:13.383Z,21.20
2022-11-26T09:01:41.997Z,20.13
2022-11-26T09:04:10.281Z,22.47
2022-11-26T09:06:40.748Z,22.67
2022-11-26T09:09:13.704Z,21.80
2022-11-26T09:11:46.076Z,22.37
2022-11-26T09:14:16.007Z,22.53
2022-11-26T09:16:44.749Z,22.40
2022-11-26T09:19:15.206Z,22.10
2022-11-26T09:21:44.167Z,22.83
2022-11-26T09:24:14.196Z,22.97
2022-11-26T09:26:42.856Z,22.83
2022-11-26T09:29:15.197Z,21.70
2022-11-26T09:32:07.373Z,21.73
2022-11-26T09:34:32.920Z,20.30
2022-11-26T09:37:01.218Z,21.67
2022-11-26T09:39:30.943Z,22.47
2022-11-26T09:42:07.519Z,21.77
2022-11-26T09:45:04.072Z,20.00
2022-11-26T09:47:41.409Z,19.67
2022-11-26T09:50:26.610Z,21.67
2022-11-26T09:53:01.253Z,19.80
2022-11-26T09:55:34.444Z,19.77
2022-11-26T09:58:13.299Z,18.37
2022-11-26T10:00:44.905Z,16.80
2022-11-26T10:03:17.071Z,16.20
2022-11-26T10:05:53.436Z,17.27
2022-11-26T10:09:03.977Z,17.00
2022-11-26T10:11:45.538Z,17.37
2022-11-26T10:14:40.652Z,16.83
2022-11-26T10:17:26.028Z,16.27
2022-11-26T10:20:25.188Z,17.00
2022-11-26T10:23:01.761Z,17.70
2022-11-26T10:25:37.476Z,17.33
2022-11-26T10:28:21.562Z,17.70
2022-11-26T10:30:58.708Z,20.40
2022-11-26T10:33:33.332Z,21.17
2022-11-26T10:36:01.867Z,20.93
2022-11-26T10:38:30.114Z,18.83
2022-11-26T10:40:58.432Z,18.50
2022-11-26T10:43:28.544Z,17.67
2022-11-26T10:45:58.390Z,16.73
2022-11-26T10:48:29.717Z,19.17
2022-11-26T10:51:07.207Z,19.77
2022-11-26T10:53:55.555Z,20.17
2022-11-26T10:56:37.124Z,18.93
2022-11-26T10:59:20.848Z,20.57
2022-11-26T11:01:51.700Z,18.47
2022-11-26T11:04:31.625Z,18.73
2022-11-26T11:07:00.283Z,17.20
2022-11-26T11:09:35.941Z,18.73
2022-11-26T11:12:25.127Z,17.23
2022-11-26T11:14:55.069Z,17.87
2022-11-26T11:17:33.110Z,18.13
2022-11-26T11:20:26.742Z,18.07
2022-11-26T11:23:31.108Z,17.57
2022-11-26T11:26:16.778Z,19.90
2022-11-26T11:28:51.021Z,18.17
2022-11-26T11:31:23.549Z,17.70
2022-11-26T11:34:12.067Z,18.20
2022-11-26T11:36:40.966Z,19.57
2022-11-26T11:39:29.823Z,19.57
2022-11-26T11:42:01.467Z,19.30
2022-11-26T11:44:43.788Z,20.20
2022-11-26T11:47:35.765Z,20.97
2022-11-26T11:50:22.639Z,21.37
2022-11-26T11:53:24.125Z,21.10
2022-11-26T11:56:17.025Z,20.43
2022-11-26T11:59:10.553Z,21.80
2022-11-26T12:02:03.652Z,21.73
2022-11-26T12:05:06.965Z,22.27
2022-11-26T12:07:43.306Z,22.73
2022-11-26T12:10:19.152Z,23.83
2022-11-26T12:12:52.436Z,24.10
2022-11-26T12:15:29.426Z,24.53
2022-11-26T12:18:09.824Z,24.97
2022-11-26T12:20:45.273Z,24.90
2022-11-26T12:23:28.412Z,24.60
2022-11-26T12:26:07.054Z,24.43
2022-11-26T12:28:44.740Z,23.53
2022-11-26T12:31:24.619Z,24.47
2022-11-26T12:34:06.989Z,25.30
2022-11-26T12:36:49.209Z,24.90
2022-11-26T12:39:30.457Z,25.90
2022-11-26T12:42:05.417Z,25.13
2022-11-26T12:44:39.439Z,24.63
2022-11-26T12:47:21.545Z,24.67
2022-11-26T12:50:12.872Z,23.83
2022-11-26T12:52:51.679Z,24.17
2022-11-26T12:55:26.281Z,24.13
2022-11-26T12:58:02.182Z,23.17
2022-11-26T13:00:36.605Z,22.60
2022-11-26T13:03:08.072Z,24.73
2022-11-26T13:05:51.599Z,22.50
2022-11-26T13:08:44.246Z,22.53
2022-11-26T13:11:29.742Z,22.90
2022-11-26T13:14:09.599Z,22.57
2022-11-26T13:16:43.264Z,22.97
2022-11-26T13:19:21.555Z,23.63
2022-11-26T13:22:33.256Z,23.50
2022-11-26T13:25:38.783Z,23.30
2022-11-26T13:28:28.359Z,23.07
2022-11-26T13:31:21.270Z,23.67
2022-11-26T13:34:23.464Z,23.33
2022-11-26T13:37:25.272Z,24.27
2022-11-26T13:40:44.779Z,22.87
2022-11-26T13:44:07.499Z,23.83
2022-11-26T13:46:40.432Z,23.33
2022-11-26T13:49:16.148Z,23.20
2022-11-26T13:51:49.709Z,21.03
2022-11-26T13:54:28.291Z,23.03
2022-11-26T13:57:06.472Z,22.53
2022-11-26T13:59:36.751Z,21.60
2022-11-26T14:02:44.426Z,23.17
2022-11-26T14:05:16.733Z,24.20
2022-11-26T14:07:47.274Z,24.80
2022-11-26T14:10:44.341Z,24.30
2022-11-26T14:13:16.243Z,23.83
2022-11-26T14:16:03.723Z,25.07
2022-11-26T14:19:01.192Z,25.60
2022-11-26T14:21:31.588Z,23.93
2022-11-26T14:24:03.293Z,25.03
2022-11-26T14:26:37.344Z,25.87
2022-11-26T14:29:17.434Z,23.80
2022-11-26T14:31:53.065Z,25.43
2022-11-26T14:34:30.435Z,25.70
2022-11-26T14:37:01.419Z,26.27
2022-11-26T14:39:31.797Z,26.03
2022-11-26T14:42:06.110Z,25.00
2022-11-26T14:44:36.797Z,26.67
2022-11-26T14:47:17.318Z,29.00
2022-11-26T14:49:50.855Z,27.77
2022-11-26T14:52:27.224Z,27.87
2022-11-26T14:54:59.903Z,25.80
2022-11-26T14:57:41.728Z,25.43
2022-11-26T15:00:25.069Z,27.00
2022-11-26T15:02:54.316Z,26.13
2022-11-26T15:05:25.936Z,26.57
2022-11-26T15:08:03.769Z,25.57
2022-11-26T15:10:35.735Z,24.77
2022-11-26T15:13:13.534Z,24.60
2022-11-26T15:15:53.807Z,23.93
2022-11-26T15:18:29.453Z,25.90
2022-11-26T15:21:00.118Z,25.47
2022-11-26T15:23:36.690Z,24.20
2022-11-26T15:26:06.760Z,26.47
2022-11-26T15:28:40.961Z,30.53
2022-11-26T15:31:11.974Z,27.20
2022-11-26T15:33:41.798Z,27.43
2022-11-26T15:36:17.423Z,27.90
2022-11-26T15:39:06.437Z,28.17
2022-11-26T15:41:42.488Z,28.60
2022-11-26T15:44:23.320Z,31.17
2022-11-26T15:46:56.555Z,27.97
2022-11-26T15:49:29.919Z,30.10
2022-11-26T15:52:03.499Z,30.33
2022-11-26T15:54:56.804Z,30.57
2022-11-26T15:57:30.804Z,32.13
2022-11-26T16:00:05.772Z,29.40
2022-11-26T16:02:35.791Z,29.70
2022-11-26T16:05:05.691Z,32.93
2022-11-26T16:07:35.020Z,30.03
2022-11-26T16:10:26.682Z,31.90
2022-11-26T16:13:20.044Z,33.83
2022-11-26T16:15:55.345Z,32.67
2022-11-26T16:18:34.682Z,32.50
2022-11-26T16:21:07.900Z,32.00
2022-11-26T16:23:36.360Z,35.17
2022-11-26T16:26:16.002Z,35.70
2022-11-26T16:28:45.829Z,34.63
2022-11-26T16:31:15.155Z,35.23
2022-11-26T16:33:45.420Z,34.60
2022-11-26T16:36:21.679Z,34.13
2022-11-26T16:38:51.144Z,35.90
2022-11-26T16:41:22.693Z,33.43
2022-11-26T16:43:51.570Z,35.80
2022-11-26T16:46:24.018Z,32.93
2022-11-26T16:48:53.987Z,36.03
2022-11-26T16:51:23.612Z,33.43
2022-11-26T16:53:52.032Z,32.20
2022-11-26T16:56:25.172Z,33.47
2022-11-26T16:58:54.178Z,32.93
2022-11-26T17:01:22.567Z,32.63
2022-11-26T17:03:50.991Z,32.47
2022-11-26T17:06:26.988Z,33.23
2022-11-26T17:08:57.709Z,35.43
2022-11-26T17:11:26.240Z,33.87
2022-11-26T17:13:55.231Z,34.30
2022-11-26T17:16:26.000Z,33.73
2022-11-26T17:18:54.446Z,31.33
2022-11-26T17:21:24.072Z,33.37
2022-11-26T17:23:52.319Z,33.03
2022-11-26T17:26:24.238Z,34.57
2022-11-26T17:28:52.760Z,33.13
2022-11-26T17:31:21.176Z,32.23
2022-11-26T17:33:50.594Z,31.83
2022-11-26T17:36:22.022Z,31.93
2022-11-26T17:38:52.001Z,32.60
2022-11-26T17:41:20.665Z,32.63
2022-11-26T17:43:49.144Z,31.97
2022-11-26T17:46:22.772Z,32.57
2022-11-26T17:48:56.885Z,32.13
2022-11-26T17:51:27.891Z,31.63
2022-11-26T17:53:57.492Z,31.27
2022-11-26T17:56:26.818Z,33.00
2022-11-26T17:58:55.905Z,32.10
2022-11-26T18:01:24.260Z,33.43
2022-11-26T18:03:52.997Z,34.23
2022-11-26T18:06:35.400Z,34.57
2022-11-26T18:09:05.376Z,31.73
2022-11-26T18:11:47.114Z,33.50
2022-11-26T18:14:15.368Z,33.83
2022-11-26T18:16:44.397Z,31.57
2022-11-26T18:19:15.595Z,32.50
2022-11-26T18:21:44.734Z,31.03
2022-11-26T18:24:15.134Z,33.20
2022-11-26T18:26:44.450Z,33.77
2022-11-26T18:29:13.235Z,31.10
2022-11-26T18:31:41.500Z,32.33
2022-11-26T18:34:11.116Z,32.57
2022-11-26T18:36:39.322Z,32.67
2022-11-26T18:39:08.022Z,33.43
2022-11-26T18:41:37.646Z,32.30
2022-11-26T18:44:05.888Z,34.10
2022-11-26T18:46:34.384Z,32.83
2022-11-26T18:49:03.228Z,31.77
2022-11-26T18:51:31.430Z,32.63
2022-11-26T18:53:59.653Z,33.50
2022-11-26T18:56:28.045Z,31.97
2022-11-26T18:58:57.697Z,31.97
2022-11-26T19:01:28.359Z,32.17
2022-11-26T19:03:58.743Z,33.47
2022-11-26T19:06:29.736Z,29.73
2022-11-26T19:09:00.277Z,32.40
2022-11-26T19:11:29.529Z,32.37
2022-11-26T19:14:00.128Z,31.50
2022-11-26T19:16:29.042Z,32.47
2022-11-26T19:18:57.390Z,33.43
2022-11-26T19:21:28.776Z,31.97
2022-11-26T19:24:00.605Z,33.07
2022-11-26T19:26:29.775Z,31.00
2022-11-26T19:29:04.827Z,31.67
2022-11-26T19:31:35.888Z,31.40
2022-11-26T19:34:07.508Z,32.33
2022-11-26T19:36:37.280Z,31.33
2022-11-26T19:39:07.806Z,32.30
2022-11-26T19:41:36.171Z,32.03
2022-11-26T19:44:06.887Z,31.33
2022-11-26T19:46:40.453Z,30.43
2022-11-26T19:49:12.827Z,31.83
2022-11-26T19:51:41.789Z,29.17
2022-11-26T19:54:10.559Z,30.17
2022-11-26T19:56:39.280Z,29.57
2022-11-26T19:59:08.924Z,29.53
2022-11-26T20:01:37.247Z,29.73
2022-11-26T20:04:08.164Z,32.07
2022-11-26T20:06:37.879Z,32.13
2022-11-26T20:09:08.745Z,32.73
2022-11-26T20:11:39.939Z,32.10
2022-11-26T20:14:10.692Z,33.70
2022-11-26T20:16:41.374Z,34.50
2022-11-26T20:19:11.392Z,32.13
2022-11-26T20:21:40.118Z,34.17
2022-11-26T20:24:13.114Z,31.83
2022-11-26T20:26:44.046Z,34.53
2022-11-26T20:29:16.929Z,33.03
2022-11-26T20:31:47.565Z,32.97
2022-11-26T20:34:17.154Z,33.17
2022-11-26T20:36:45.874Z,34.40
2022-11-26T20:39:15.918Z,34.67
2022-11-26T20:41:44.687Z,34.80
2022-11-26T20:44:14.910Z,36.70
2022-11-26T20:46:43.511Z,37.83
2022-11-26T20:49:12.156Z,38.93
2022-11-26T20:51:40.842Z,39.00
2022-11-26T20:54:09.045Z,36.97
2022-11-26T20:56:38.451Z,38.47
2022-11-26T20:59:09.561Z,39.97
2022-11-26T21:01:40.139Z,40.07
2022-11-26T21:04:08.728Z,40.10
2022-11-26T21:06:37.392Z,36.93
2022-11-26T21:09:07.329Z,37.30
2022-11-26T21:11:36.382Z,36.73
2022-11-26T21:14:08.481Z,36.27
2022-11-26T21:16:40.388Z,35.77
2022-11-26T21:19:11.777Z,36.93
2022-11-26T21:21:40.235Z,35.10
2022-11-26T21:24:09.578Z,35.63
2022-11-26T21:26:37.910Z,34.23
2022-11-26T21:29:06.172Z,34.83
2022-11-26T21:31:34.536Z,36.40
2022-11-26T21:34:07.527Z,35.50
2022-11-26T21:36:37.669Z,35.23
2022-11-26T21:39:07.050Z,35.77
2022-11-26T21:41:35.484Z,38.00
2022-11-26T21:44:05.236Z,36.17
2022-11-26T21:46:38.496Z,36.13
2022-11-26T21:49:09.033Z,34.87
2022-11-26T21:51:37.399Z,35.87
2022-11-26T21:54:06.293Z,36.33
2022-11-26T21:56:34.732Z,36.50
2022-11-26T21:59:03.352Z,35.20
2022-11-26T22:01:33.686Z,37.73
2022-11-26T22:04:07.100Z,35.23
2022-11-26T22:06:37.281Z,34.97
2022-11-26T22:09:07.031Z,34.13
2022-11-26T22:11:37.770Z,34.40
2022-11-26T22:14:07.558Z,32.43
2022-11-26T22:16:35.921Z,31.50
2022-11-26T22:19:04.357Z,33.53
2022-11-26T22:21:38.362Z,30.63
2022-11-26T22:24:10.794Z,31.17
2022-11-26T22:26:39.448Z,29.57
2022-11-26T22:29:08.001Z,31.13
2022-11-26T22:31:39.011Z,28.97
2022-11-26T22:34:09.498Z,30.77
2022-11-26T22:36:40.143Z,29.17
2022-11-26T22:39:13.512Z,27.43
2022-11-26T22:41:43.760Z,28.93
2022-11-26T22:44:13.268Z,26.60
2022-11-26T22:46:41.596Z,27.73
2022-11-26T22:49:13.855Z,26.33
2022-11-26T22:51:43.678Z,24.83
2022-11-26T22:54:15.456Z,23.87
2022-11-26T22:56:43.813Z,23.90
2022-11-26T22:59:14.663Z,22.60
2022-11-26T23:01:43.165Z,21.77
2022-11-26T23:04:13.049Z,21.07
2022-11-26T23:06:43.460Z,20.63
2022-11-26T23:09:14.440Z,20.57
2022-11-26T23:11:44.126Z,19.43
2022-11-26T23:14:13.725Z,18.77
2022-11-26T23:16:44.854Z,19.33
2022-11-26T23:19:15.898Z,18.33
2022-11-26T23:21:46.893Z,18.80
2022-11-26T23:24:16.811Z,17.97
2022-11-26T23:26:46.241Z,17.03
2022-11-26T23:29:15.322Z,17.20
2022-11-26T23:31:45.404Z,16.60
2022-11-26T23:34:14.773Z,17.83
2022-11-26T23:36:44.967Z,17.07
2022-11-26T23:39:14.471Z,17.10
2022-11-26T23:41:43.597Z,16.80
2022-11-26T23:44:12.148Z,17.37
2022-11-26T23:46:40.720Z,18.57
2022-11-26T23:49:09.181Z,16.27
2022-11-26T23:51:37.520Z,17.33
2022-11-26T23:54:07.366Z,16.40
2022-11-26T23:56:36.518Z,15.97
2022-11-26T23:59:08.418Z,15.23
